Time;durP1;ratioP1;P1;durP2;ratioP2;P2;SDS_P1;SDS_P2;PMS_P1;PMS_P2;Temp;Humidity;BMP_temperature;BMP_pressure;BME280_temperature;BME280_humidity;BME280_pressure;Samples;Min_cycle;Max_cycle;Signal;HPM_P1;HPM_P2
2020/12/19 00:01:53;;;;;;;;;;;;;;;11.02;100.00;98795.44;5079554;28;19928;-74
2020/12/19 00:04:28;;;;;;;;;;;;;;;11.03;100.00;98797.00;5097722;28;20379;-74
2020/12/19 00:06:54;;;;;;;;;;;;;;;11.06;100.00;98796.13;5113398;28;19924;-74
2020/12/19 00:09:21;;;;;;;;;;;;;;;11.04;100.00;98793.00;5079481;28;19924;-74
2020/12/19 00:11:47;;;;;;;;;;;;;;;11.03;100.00;98790.66;5097563;28;19962;-74
2020/12/19 00:14:13;;;;;;;;;;;;;;;11.04;100.00;98797.81;5097342;28;20277;-74
2020/12/19 00:16:40;;;;;;;;;;;;;;;11.07;100.00;98808.13;5097402;28;19975;-74
2020/12/19 00:19:06;;;;;;;;;;;;;;;11.03;100.00;98765.47;5079127;28;19925;-73
2020/12/19 00:21:33;;;;;;;;;;;;;;;11.09;100.00;98781.28;5097233;28;19924;-74
2020/12/19 00:24:00;;;;;;;;;;;;;;;11.07;100.00;98774.56;5097208;28;19924;-74
2020/12/19 00:26:33;;;;;;;;;;;;;;;11.10;100.00;98768.91;5097051;28;19924;-74
2020/12/19 00:29:00;;;;;;;;;;;;;;;11.12;100.00;98765.66;5112456;28;19973;-73
2020/12/19 00:31:27;;;;;;;;;;;;;;;11.12;100.00;98772.03;5097102;28;19970;-74
2020/12/19 00:33:54;;;;;;;;;;;;;;;11.05;100.00;98771.41;5096796;28;19990;-73
2020/12/19 00:36:21;;;;;;;;;;;;;;;11.04;100.00;98741.88;5078995;28;19939;-74
2020/12/19 00:38:47;;;;;;;;;;;;;;;11.00;100.00;98758.72;5078359;28;19931;-73
2020/12/19 00:41:21;;;;;;;;;;;;;;;10.97;100.00;98728.84;5096535;28;19924;-73
2020/12/19 00:43:48;;;;;;;;;;;;;;;11.00;100.00;98716.81;5096200;28;19924;-74
2020/12/19 00:46:16;;;;;;;;;;;;;;;11.00;100.00;98730.78;5096915;28;19994;-74
2020/12/19 00:48:42;;;;;;;;;;;;;;;10.99;100.00;98707.63;5096902;28;19924;-74
2020/12/19 00:51:12;;;;;;;;;;;;;;;10.97;100.00;98709.28;5096895;28;20411;-74
2020/12/19 00:53:40;;;;;;;;;;;;;;;10.93;100.00;98708.59;5097231;28;20399;-74
2020/12/19 00:56:06;;;;;;;;;;;;;;;10.98;100.00;98715.66;5062181;28;19924;-74
2020/12/19 00:58:32;;;;;;;;;;;;;;;10.96;100.00;98696.53;5096413;28;19970;-74
2020/12/19 01:00:59;;;;;;;;;;;;;;;10.90;100.00;98709.44;5096687;28;19932;-74
2020/12/19 01:03:25;;;;;;;;;;;;;;;10.86;100.00;98703.13;5095623;28;19924;-73
2020/12/19 01:05:52;;;;;;;;;;;;;;;10.89;100.00;98713.44;5078581;28;19973;-74
2020/12/19 01:08:18;;;;;;;;;;;;;;;10.93;100.00;98705.78;5078448;28;19924;-74
2020/12/19 01:10:45;;;;;;;;;;;;;;;10.88;100.00;98706.28;5096446;28;20022;-74
2020/12/19 01:13:11;;;;;;;;;;;;;;;10.89;100.00;98702.28;5096117;28;19924;-74
2020/12/19 01:15:38;;;;;;;;;;;;;;;10.97;100.00;98714.88;5096297;28;19967;-74
2020/12/19 01:18:05;;;;;;;;;;;;;;;10.93;100.00;98709.34;5096179;28;19924;-74
2020/12/19 01:20:32;;;;;;;;;;;;;;;10.92;100.00;98709.78;5078255;28;20329;-74
2020/12/19 01:22:58;;;;;;;;;;;;;;;10.88;100.00;98697.91;5096100;28;19974;-74
2020/12/19 01:25:24;;;;;;;;;;;;;;;10.89;100.00;98708.66;5096147;28;19924;-73
2020/12/19 01:27:51;;;;;;;;;;;;;;;10.87;100.00;98697.13;5095710;28;19924;-73
2020/12/19 01:30:18;;;;;;;;;;;;;;;10.82;100.00;98708.81;5077873;28;19933;-73
2020/12/19 01:32:44;;;;;;;;;;;;;;;10.77;100.00;98700.94;5096023;28;19931;-73
2020/12/19 01:35:17;;;;;;;;;;;;;;;10.79;100.00;98686.53;5096018;28;19931;-73
2020/12/19 01:37:43;;;;;;;;;;;;;;;10.76;100.00;98702.19;5095862;28;19924;-73
2020/12/19 01:40:10;;;;;;;;;;;;;;;10.80;100.00;98707.66;5095623;28;20378;-74
2020/12/19 01:42:36;;;;;;;;;;;;;;;10.71;100.00;98713.84;5095819;28;19966;-73
2020/12/19 01:45:03;;;;;;;;;;;;;;;10.72;100.00;98706.28;5111326;28;20957;-74
2020/12/19 01:47:32;;;;;;;;;;;;;;;10.73;100.00;98716.22;5077837;28;20001;-74
2020/12/19 01:49:58;;;;;;;;;;;;;;;10.73;100.00;98711.44;5077597;28;19924;-73
2020/12/19 01:52:27;;;;;;;;;;;;;;;10.65;100.00;98712.00;5095729;28;19924;-73
2020/12/19 01:54:56;;;;;;;;;;;;;;;10.67;100.00;98709.56;5111094;28;19924;-74
2020/12/19 01:57:25;;;;;;;;;;;;;;;10.73;100.00;98724.59;5077488;28;19924;-73
2020/12/19 01:59:52;;;;;;;;;;;;;;;10.70;100.00;98728.25;5095539;28;19931;-74
2020/12/19 02:02:21;;;;;;;;;;;;;;;10.64;100.00;98724.41;5095354;28;19924;-74
2020/12/19 02:04:48;;;;;;;;;;;;;;;10.60;100.00;98729.28;5077400;28;19924;-74
2020/12/19 02:07:14;;;;;;;;;;;;;;;10.59;100.00;98716.53;5077332;28;20291;-73
2020/12/19 02:09:41;;;;;;;;;;;;;;;10.67;100.00;98723.53;5095310;28;20022;-74
2020/12/19 02:12:09;;;;;;;;;;;;;;;10.65;100.00;98723.97;5095308;28;20452;-74
2020/12/19 02:14:37;;;;;;;;;;;;;;;10.60;100.00;98712.53;5095244;28;19931;-73
2020/12/19 02:17:11;;;;;;;;;;;;;;;10.64;100.00;98732.78;5077323;28;19924;-74
2020/12/19 02:19:40;;;;;;;;;;;;;;;10.63;100.00;98745.97;5095171;28;19928;-74
2020/12/19 02:22:07;;;;;;;;;;;;;;;10.62;100.00;98726.84;5095113;28;19993;-74
2020/12/19 02:24:33;;;;;;;;;;;;;;;10.65;100.00;98731.56;5094719;28;19924;-73
2020/12/19 02:27:00;;;;;;;;;;;;;;;10.67;100.00;98746.69;5094966;28;19928;-74
2020/12/19 02:29:28;;;;;;;;;;;;;;;10.62;100.00;98738.81;5095099;28;19924;-74
2020/12/19 02:31:55;;;;;;;;;;;;;;;10.58;100.00;98737.31;5094966;28;19924;-74
2020/12/19 02:34:22;;;;;;;;;;;;;;;10.57;100.00;98752.50;5094982;28;19932;-74
2020/12/19 02:36:49;;;;;;;;;;;;;;;10.57;100.00;98746.91;5094883;28;19928;-74
2020/12/19 02:39:15;;;;;;;;;;;;;;;10.50;100.00;98736.66;5094674;28;20398;-74
2020/12/19 02:41:43;;;;;;;;;;;;;;;10.49;100.00;98745.47;5094792;28;19924;-74
2020/12/19 02:44:14;;;;;;;;;;;;;;;10.42;100.00;98745.63;5094867;28;19969;-74
2020/12/19 02:46:40;;;;;;;;;;;;;;;10.33;100.00;98743.41;5076724;28;19928;-74
2020/12/19 02:49:07;;;;;;;;;;;;;;;10.28;100.00;98726.38;5110343;28;20496;-74
2020/12/19 02:51:33;;;;;;;;;;;;;;;10.20;100.00;98708.16;5094732;28;19931;-74
2020/12/19 02:54:00;;;;;;;;;;;;;;;10.18;100.00;98714.19;5094433;28;19928;-74
2020/12/19 02:56:26;;;;;;;;;;;;;;;10.18;100.00;98696.63;5094802;28;19931;-74
2020/12/19 02:58:53;;;;;;;;;;;;;;;9.99;100.00;98683.44;5076454;28;20368;-74
2020/12/19 03:01:19;;;;;;;;;;;;;;;10.05;100.00;98673.34;5076529;28;19924;-73
2020/12/19 03:03:46;;;;;;;;;;;;;;;10.05;100.00;98679.72;5094423;28;19928;-74
2020/12/19 03:06:22;;;;;;;;;;;;;;;9.98;100.00;98671.47;5094488;28;19977;-74
2020/12/19 03:08:48;;;;;;;;;;;;;;;9.96;100.00;98667.56;5094282;28;19978;-74
2020/12/19 03:11:15;;;;;;;;;;;;;;;9.84;100.00;98648.66;5076573;28;19928;-74
2020/12/19 03:13:41;;;;;;;;;;;;;;;9.86;100.00;98635.06;5076556;28;19931;-74
2020/12/19 03:16:08;;;;;;;;;;;;;;;9.79;100.00;98624.03;5110259;28;19924;-74
2020/12/19 03:18:34;;;;;;;;;;;;;;;9.80;100.00;98622.84;5043121;28;19928;-74
2020/12/19 03:21:01;;;;;;;;;;;;;;;9.75;100.00;98623.31;5076079;28;20023;-74
2020/12/19 03:23:27;;;;;;;;;;;;;;;9.68;100.00;98601.16;5094130;28;19931;-74
2020/12/19 03:25:58;;;;;;;;;;;;;;;9.60;100.00;98605.28;5093944;28;19948;-74
2020/12/19 03:28:24;;;;;;;;;;;;;;;9.51;100.00;98583.53;5094120;28;19924;-73
2020/12/19 03:30:51;;;;;;;;;;;;;;;9.45;100.00;98559.38;5094209;28;19928;-74
2020/12/19 03:33:18;;;;;;;;;;;;;;;9.40;100.00;98563.44;5094142;28;19931;-74
2020/12/19 03:35:45;;;;;;;;;;;;;;;9.31;100.00;98566.00;5076294;28;20260;-74
2020/12/19 03:38:12;;;;;;;;;;;;;;;9.24;100.00;98559.78;5093773;28;19982;-74
2020/12/19 03:40:38;;;;;;;;;;;;;;;9.27;100.00;98564.50;5094149;28;19924;-74
2020/12/19 03:43:05;;;;;;;;;;;;;;;9.18;100.00;98551.09;5109880;28;20035;-74
2020/12/19 03:45:31;;;;;;;;;;;;;;;9.16;100.00;98548.75;5093995;28;19960;-74
2020/12/19 03:47:58;;;;;;;;;;;;;;;9.21;100.00;98546.69;5094167;28;19924;-73
2020/12/19 03:50:24;;;;;;;;;;;;;;;9.28;100.00;98549.34;5094000;28;19930;-74
2020/12/19 03:52:51;;;;;;;;;;;;;;;9.27;100.00;98542.22;5075520;28;19932;-74
2020/12/19 03:55:17;;;;;;;;;;;;;;;9.23;100.00;98547.03;5094102;28;19950;-73
2020/12/19 03:57:43;;;;;;;;;;;;;;;9.18;100.00;98545.53;5076004;28;19960;-74
2020/12/19 04:00:10;;;;;;;;;;;;;;;9.23;100.00;98533.09;5093941;28;20024;-74
2020/12/19 04:02:39;;;;;;;;;;;;;;;9.25;100.00;98533.47;5093821;28;20359;-73
2020/12/19 04:05:10;;;;;;;;;;;;;;;9.33;100.00;98527.31;5093853;28;19993;-74
2020/12/19 04:07:37;;;;;;;;;;;;;;;9.29;100.00;98523.03;5093676;28;20263;-74
2020/12/19 04:10:04;;;;;;;;;;;;;;;9.36;100.00;98517.34;5093791;28;20014;-74
2020/12/19 04:12:30;;;;;;;;;;;;;;;9.45;100.00;98525.91;5093790;28;19943;-73
2020/12/19 04:14:57;;;;;;;;;;;;;;;9.35;100.00;98521.31;5075646;28;19924;-74
2020/12/19 04:17:23;;;;;;;;;;;;;;;9.45;100.00;98515.53;5093673;28;19977;-74
2020/12/19 04:19:50;;;;;;;;;;;;;;;9.43;100.00;98500.44;5075471;28;19924;-74
2020/12/19 04:22:16;;;;;;;;;;;;;;;9.44;100.00;98513.97;5093573;28;19928;-74
2020/12/19 04:24:42;;;;;;;;;;;;;;;9.35;100.00;98512.94;5075852;28;19969;-74
2020/12/19 04:27:09;;;;;;;;;;;;;;;9.46;100.00;98521.91;5075568;28;19924;-74
2020/12/19 04:29:35;;;;;;;;;;;;;;;9.38;100.00;98523.25;5093447;28;19935;-74
2020/12/19 04:32:02;;;;;;;;;;;;;;;9.36;100.00;98534.81;5093544;28;19954;-74
2020/12/19 04:34:29;;;;;;;;;;;;;;;9.37;100.00;98535.63;5075243;28;19924;-74
2020/12/19 04:36:55;;;;;;;;;;;;;;;9.49;100.00;98534.97;5075328;28;20291;-74
2020/12/19 04:39:21;;;;;;;;;;;;;;;9.40;100.00;98534.78;5095854;28;19955;-74
2020/12/19 04:41:48;;;;;;;;;;;;;;;9.25;100.00;98516.75;5079028;28;19924;-73
2020/12/19 04:44:15;;;;;;;;;;;;;;;9.26;100.00;98518.31;5097016;28;19924;-74
2020/12/19 04:46:43;;;;;;;;;;;;;;;9.36;100.00;98534.06;5078901;28;19978;-74
2020/12/19 04:49:10;;;;;;;;;;;;;;;9.52;100.00;98550.88;5096672;28;20325;-73
2020/12/19 04:51:37;;;;;;;;;;;;;;;9.45;100.00;98548.22;5078902;28;19924;-74
2020/12/19 04:54:04;;;;;;;;;;;;;;;9.47;100.00;98557.72;5096903;28;19924;-74
2020/12/19 04:56:31;;;;;;;;;;;;;;;9.39;100.00;98555.50;5096683;28;19935;-73
2020/12/19 04:58:58;;;;;;;;;;;;;;;9.32;100.00;98555.63;5096708;28;19978;-74
2020/12/19 05:01:25;;;;;;;;;;;;;;;9.33;100.00;98568.38;5096782;28;20029;-74
2020/12/19 05:03:52;;;;;;;;;;;;;;;9.33;100.00;98560.00;5096304;28;20344;-74
2020/12/19 05:06:26;;;;;;;;;;;;;;;9.32;100.00;98578.72;5096583;28;19931;-74
2020/12/19 05:08:53;;;;;;;;;;;;;;;9.36;100.00;98592.63;5096074;28;19969;-74
2020/12/19 05:11:20;;;;;;;;;;;;;;;9.34;100.00;98587.47;5096391;28;19932;-74
2020/12/19 05:13:47;;;;;;;;;;;;;;;9.43;100.00;98593.25;5078269;28;19931;-74
2020/12/19 05:16:14;;;;;;;;;;;;;;;9.56;100.00;98591.41;5078041;28;19924;-74
2020/12/19 05:18:41;;;;;;;;;;;;;;;9.60;100.00;98578.19;5095863;28;20406;-74
2020/12/19 05:21:09;;;;;;;;;;;;;;;9.56;100.00;98580.25;5077988;28;19924;-74
2020/12/19 05:23:36;;;;;;;;;;;;;;;9.50;100.00;98567.22;5096110;28;19969;-74
2020/12/19 05:26:03;;;;;;;;;;;;;;;9.33;100.00;98549.63;5096065;28;20011;-74
2020/12/19 05:28:30;;;;;;;;;;;;;;;9.23;100.00;98535.91;5078047;28;19924;-74
2020/12/19 05:30:58;;;;;;;;;;;;;;;9.27;100.00;98536.63;5077778;28;19970;-74
2020/12/19 05:33:29;;;;;;;;;;;;;;;9.25;100.00;98541.84;5061257;28;20267;-74
2020/12/19 05:35:56;;;;;;;;;;;;;;;9.34;100.00;98548.44;5095925;28;19924;-74
2020/12/19 05:38:25;;;;;;;;;;;;;;;9.05;100.00;98539.81;5095745;28;19931;-74
2020/12/19 05:40:52;;;;;;;;;;;;;;;9.17;100.00;98541.19;5095708;28;19931;-74
2020/12/19 05:43:18;;;;;;;;;;;;;;;9.30;100.00;98569.22;5111302;28;19924;-74
2020/12/19 05:45:45;;;;;;;;;;;;;;;9.21;100.00;98555.06;5094433;28;20034;-74
2020/12/19 05:48:11;;;;;;;;;;;;;;;9.21;100.00;98569.00;5095374;28;19962;-74
2020/12/19 05:50:38;;;;;;;;;;;;;;;9.30;100.00;98566.44;5095277;28;19931;-74
2020/12/19 05:53:05;;;;;;;;;;;;;;;9.33;100.00;98585.09;5095792;28;20355;-74
2020/12/19 05:55:33;;;;;;;;;;;;;;;9.33;100.00;98590.69;5095484;28;19924;-74
2020/12/19 05:58:00;;;;;;;;;;;;;;;9.39;100.00;98584.16;5095329;28;20286;-74
2020/12/19 06:00:29;;;;;;;;;;;;;;;9.45;100.00;98584.47;5060778;28;19931;-74
2020/12/19 06:02:56;;;;;;;;;;;;;;;9.29;100.00;98587.94;5077187;28;19924;-73
2020/12/19 06:05:26;;;;;;;;;;;;;;;9.19;100.00;98567.41;5095418;28;20442;-74
2020/12/19 06:07:54;;;;;;;;;;;;;;;9.25;100.00;98564.13;5077206;28;19924;-75
2020/12/19 06:10:20;;;;;;;;;;;;;;;9.36;100.00;98567.53;5111213;28;20286;-74
2020/12/19 06:13:02;;;;;;;;;;;;;;;9.39;100.00;98573.00;5095218;28;20312;-74
2020/12/19 06:15:50;;;;;;;;;;;;;;;9.42;100.00;98561.00;5094886;28;20400;-75
2020/12/19 06:18:33;;;;;;;;;;;;;;;9.43;100.00;98561.78;5095132;28;19924;-74
2020/12/19 06:21:00;;;;;;;;;;;;;;;9.33;100.00;98548.84;5076929;28;20280;-75
2020/12/19 06:23:34;;;;;;;;;;;;;;;9.26;100.00;98554.56;5094882;28;19971;-74
2020/12/19 06:26:02;;;;;;;;;;;;;;;9.27;100.00;98542.22;5094936;28;19932;-74
2020/12/19 06:28:40;;;;;;;;;;;;;;;9.31;100.00;98542.91;5077076;28;20286;-75
2020/12/19 06:31:08;;;;;;;;;;;;;;;9.33;100.00;98540.50;5094856;28;20267;-75
2020/12/19 06:33:35;;;;;;;;;;;;;;;9.32;100.00;98539.69;5094962;28;19924;-75
2020/12/19 06:36:20;;;;;;;;;;;;;;;9.35;100.00;98549.19;5076769;28;20423;-75
2020/12/19 06:38:48;;;;;;;;;;;;;;;9.47;100.00;98542.97;5076528;28;19928;-75
2020/12/19 06:41:33;;;;;;;;;;;;;;;9.48;100.00;98534.19;5094668;28;19951;-75
2020/12/19 06:44:19;;;;;;;;;;;;;;;9.43;100.00;98533.91;5110161;28;19924;-75
2020/12/19 06:46:45;;;;;;;;;;;;;;;9.52;100.00;98550.88;5093983;28;19924;-75
2020/12/19 06:49:24;;;;;;;;;;;;;;;9.49;100.00;98537.78;5094420;28;19989;-75
2020/12/19 06:51:56;;;;;;;;;;;;;;;9.51;100.00;98540.94;5094487;28;19924;-75
2020/12/19 06:54:30;;;;;;;;;;;;;;;9.40;100.00;98540.34;5094395;28;19930;-75
2020/12/19 06:56:57;;;;;;;;;;;;;;;9.50;100.00;98536.56;5101034;28;20351;-75
2020/12/19 06:59:24;;;;;;;;;;;;;;;9.52;100.00;98548.88;5075845;28;20299;-75
2020/12/19 07:01:51;;;;;;;;;;;;;;;9.51;100.00;98540.94;5093355;28;19956;-75
2020/12/19 07:04:33;;;;;;;;;;;;;;;9.54;100.00;98532.50;5094307;28;20463;-75
2020/12/19 07:07:04;;;;;;;;;;;;;;;9.53;100.00;98521.75;5094229;28;20386;-75
2020/12/19 07:09:30;;;;;;;;;;;;;;;9.51;100.00;98529.78;5092602;28;20385;-75
2020/12/19 07:11:57;;;;;;;;;;;;;;;9.51;100.00;98530.53;5076062;28;20375;-75
2020/12/19 07:14:24;;;;;;;;;;;;;;;9.42;100.00;98524.75;5093739;28;19924;-77
2020/12/19 07:16:51;;;;;;;;;;;;;;;9.44;100.00;98525.13;5094248;28;19924;-77
2020/12/19 07:19:24;;;;;;;;;;;;;;;9.43;100.00;98517.19;5092102;28;19924;-78
2020/12/19 07:21:56;;;;;;;;;;;;;;;9.33;100.00;98524.53;5094219;28;20454;-83
2020/12/19 07:24:23;;;;;;;;;;;;;;;9.38;100.00;98517.69;5071883;28;19924;-77
2020/12/19 07:26:50;;;;;;;;;;;;;;;9.43;100.00;98512.41;5093578;28;19932;-77
2020/12/19 07:29:18;;;;;;;;;;;;;;;9.43;100.00;98508.81;5110494;28;20240;-76
2020/12/19 07:31:46;;;;;;;;;;;;;;;9.42;100.00;98512.84;5110419;28;19997;-76
2020/12/19 07:34:12;;;;;;;;;;;;;;;9.44;100.00;98513.97;5104907;28;19938;-76
2020/12/19 07:36:41;;;;;;;;;;;;;;;9.34;100.00;98508.59;5090250;28;19924;-76
2020/12/19 07:39:09;;;;;;;;;;;;;;;9.27;100.00;98498.38;5093534;28;19993;-76
2020/12/19 07:41:36;;;;;;;;;;;;;;;9.35;100.00;98493.44;5091788;28;20274;-76
2020/12/19 07:44:07;;;;;;;;;;;;;;;9.36;100.00;98500.59;5112171;28;20386;-77
2020/12/19 07:46:33;;;;;;;;;;;;;;;9.31;100.00;98493.53;5078503;28;20340;-78
2020/12/19 07:48:59;;;;;;;;;;;;;;;9.19;100.00;98492.16;5095985;28;20004;-77
2020/12/19 07:51:26;;;;;;;;;;;;;;;9.23;100.00;98474.56;5095972;28;19946;-77
2020/12/19 07:53:52;;;;;;;;;;;;;;;9.11;100.00;98489.94;5096122;28;20427;-77
2020/12/19 07:56:19;;;;;;;;;;;;;;;9.18;100.00;98487.78;5114120;28;19945;-77
2020/12/19 07:58:46;;;;;;;;;;;;;;;9.07;100.00;98495.56;5095722;28;19931;-78
2020/12/19 08:01:13;;;;;;;;;;;;;;;9.01;100.00;98491.69;5096065;28;20019;-77
2020/12/19 08:03:39;;;;;;;;;;;;;;;9.06;100.00;98504.34;5095901;28;19924;-78
2020/12/19 08:06:06;;;;;;;;;;;;;;;9.12;100.00;98497.06;5113814;28;20386;-76
2020/12/19 08:08:32;;;;;;;;;;;;;;;9.18;100.00;98501.72;5113987;28;20294;-76
2020/12/19 08:11:00;;;;;;;;;;;;;;;9.19;100.00;98500.50;5113508;28;19931;-76
2020/12/19 08:13:26;;;;;;;;;;;;;;;9.16;100.00;98498.56;5097784;28;19970;-76
2020/12/19 08:15:56;;;;;;;;;;;;;;;9.18;100.00;98505.75;5117503;28;19927;-77
2020/12/19 08:18:23;;;;;;;;;;;;;;;9.12;100.00;98489.50;5099237;28;19931;-75
2020/12/19 08:20:50;;;;;;;;;;;;;;;9.00;100.00;98481.78;5117046;28;19924;-75
2020/12/19 08:23:17;;;;;;;;;;;;;;;9.05;100.00;98486.06;5099416;28;19930;-75
2020/12/19 08:25:50;;;;;;;;;;;;;;;8.96;100.00;98475.50;5118012;28;19980;-75
2020/12/19 08:28:20;;;;;;;;;;;;;;;8.96;100.00;98478.28;5099396;28;19931;-75
2020/12/19 08:30:48;;;;;;;;;;;;;;;9.08;100.00;98463.72;5117858;28;19923;-75
2020/12/19 08:33:16;;;;;;;;;;;;;;;9.02;100.00;98471.00;5082741;28;20010;-75
2020/12/19 08:35:43;;;;;;;;;;;;;;;8.99;100.00;98469.06;5117526;28;20012;-74
2020/12/19 08:38:26;;;;;;;;;;;;;;;8.92;100.00;98477.53;5117260;28;19965;-74
2020/12/19 08:40:56;;;;;;;;;;;;;;;8.92;100.00;98460.06;5099290;28;19930;-74
2020/12/19 08:43:33;;;;;;;;;;;;;;;8.99;100.00;98446.00;5099310;28;19947;-74
2020/12/19 08:46:09;;;;;;;;;;;;;;;8.95;100.00;98465.53;5099399;28;20401;-74
2020/12/19 08:48:36;;;;;;;;;;;;;;;8.88;100.00;98460.13;5117615;28;19924;-74
2020/12/19 08:51:10;;;;;;;;;;;;;;;8.89;100.00;98461.69;5117744;28;20316;-74
2020/12/19 08:53:36;;;;;;;;;;;;;;;8.94;100.00;98447.28;5099206;28;19924;-74
2020/12/19 08:56:13;;;;;;;;;;;;;;;8.88;100.00;98423.91;5117107;28;19930;-74
2020/12/19 08:58:40;;;;;;;;;;;;;;;8.86;100.00;98417.97;5117415;28;19931;-74
2020/12/19 09:01:16;;;;;;;;;;;;;;;8.88;100.00;98409.97;5117456;28;19930;-74
2020/12/19 09:03:43;;;;;;;;;;;;;;;8.86;100.00;98392.88;5117257;28;19924;-74
2020/12/19 09:06:13;;;;;;;;;;;;;;;8.96;100.00;98403.06;5098975;28;20026;-75
2020/12/19 09:08:41;;;;;;;;;;;;;;;8.91;100.00;98394.38;5099046;28;19924;-75
2020/12/19 09:11:08;;;;;;;;;;;;;;;9.05;100.00;98388.53;5117063;28;19924;-75
2020/12/19 09:13:36;;;;;;;;;;;;;;;9.09;100.00;98398.41;5065324;28;20429;-75
2020/12/19 09:16:07;;;;;;;;;;;;;;;9.22;100.00;98400.53;5098761;28;19935;-75
2020/12/19 09:18:35;;;;;;;;;;;;;;;9.31;100.00;98403.53;5098886;28;19924;-75
2020/12/19 09:21:02;;;;;;;;;;;;;;;9.23;100.00;98405.69;5098637;28;19959;-75
2020/12/19 09:23:29;;;;;;;;;;;;;;;9.06;100.00;98402.03;5098570;28;19924;-75
2020/12/19 09:25:57;;;;;;;;;;;;;;;9.11;100.00;98398.75;5098117;28;20282;-75
2020/12/19 09:28:24;;;;;;;;;;;;;;;9.11;100.00;98411.91;5116906;28;19927;-75
2020/12/19 09:30:51;;;;;;;;;;;;;;;9.11;100.00;98395.97;5098772;28;19923;-75
2020/12/19 09:33:18;;;;;;;;;;;;;;;9.18;100.00;98390.25;5098764;28;20423;-75
2020/12/19 09:35:45;;;;;;;;;;;;;;;9.16;100.00;98397.47;5081525;28;20015;-76
2020/12/19 09:38:11;;;;;;;;;;;;;;;9.03;100.00;98388.97;5098246;28;19976;-76
2020/12/19 09:40:38;;;;;;;;;;;;;;;8.97;100.00;98382.31;5116096;28;19927;-75
2020/12/19 09:43:05;;;;;;;;;;;;;;;8.90;100.00;98379.69;5116708;28;19924;-75
2020/12/19 09:45:31;;;;;;;;;;;;;;;8.93;100.00;98384.41;5116504;28;20511;-75
2020/12/19 09:47:59;;;;;;;;;;;;;;;9.01;100.00;98388.59;5098252;28;19924;-76
2020/12/19 09:50:25;;;;;;;;;;;;;;;9.03;100.00;98371.47;5116305;28;19931;-76
2020/12/19 09:52:52;;;;;;;;;;;;;;;9.18;100.00;98363.59;5098701;28;19985;-76
2020/12/19 09:55:18;;;;;;;;;;;;;;;9.12;100.00;98366.88;5116061;27;20312;-76
2020/12/19 09:57:45;;;;;;;;;;;;;;;9.18;100.00;98362.38;5097974;28;19924;-76
2020/12/19 10:00:12;;;;;;;;;;;;;;;9.21;100.00;98365.53;5116174;28;19956;-77
2020/12/19 10:02:40;;;;;;;;;;;;;;;9.21;100.00;98359.94;5115991;28;19924;-76
2020/12/19 10:05:07;;;;;;;;;;;;;;;9.36;100.00;98353.59;5097995;28;19927;-76
2020/12/19 10:07:34;;;;;;;;;;;;;;;9.46;100.00;98366.53;5115824;28;20355;-76
2020/12/19 10:10:00;;;;;;;;;;;;;;;9.55;100.00;98354.78;5115518;28;19924;-76
2020/12/19 10:12:27;;;;;;;;;;;;;;;9.48;100.00;98341.03;5115712;28;19938;-76
2020/12/19 10:14:53;;;;;;;;;;;;;;;9.37;100.00;98329.31;5097940;28;19963;-76
2020/12/19 10:17:20;;;;;;;;;;;;;;;9.42;100.00;98317.66;5097513;28;19931;-76
2020/12/19 10:19:47;;;;;;;;;;;;;;;9.37;100.00;98295.84;5115579;28;20030;-76
2020/12/19 10:22:13;;;;;;;;;;;;;;;9.31;100.00;98247.41;5097306;28;19953;-76
2020/12/19 10:24:41;;;;;;;;;;;;;;;9.14;100.00;98233.47;5115411;28;19976;-76
2020/12/19 10:27:08;;;;;;;;;;;;;;;9.18;100.00;98230.59;5097431;28;19923;-76
2020/12/19 10:29:35;;;;;;;;;;;;;;;9.00;100.00;98197.56;5080270;28;20018;-75
2020/12/19 10:32:14;;;;;;;;;;;;;;;8.86;100.00;98195.09;5097356;28;20005;-75
2020/12/19 10:34:41;;;;;;;;;;;;;;;8.61;100.00;98206.03;5097190;28;19930;-75
2020/12/19 10:37:07;;;;;;;;;;;;;;;8.64;100.00;98188.47;5113978;28;19924;-76
2020/12/19 10:39:34;;;;;;;;;;;;;;;8.67;100.00;98204.31;5115355;28;19924;-76
2020/12/19 10:42:00;;;;;;;;;;;;;;;8.82;100.00;98205.56;5115290;28;19959;-76
2020/12/19 10:44:27;;;;;;;;;;;;;;;8.76;100.00;98173.88;5094825;28;19924;-75
2020/12/19 10:46:53;;;;;;;;;;;;;;;8.89;100.00;98182.34;5092844;28;20011;-75
2020/12/19 10:49:20;;;;;;;;;;;;;;;9.03;100.00;98184.78;5094956;28;19924;-75
2020/12/19 10:51:56;;;;;;;;;;;;;;;9.00;100.00;98116.78;5093054;28;19928;-75
2020/12/19 10:54:22;;;;;;;;;;;;;;;9.04;100.00;98025.50;5127493;27;19935;-75
2020/12/19 10:56:53;;;;;;;;;;;;;;;9.07;100.00;98013.50;5094547;28;19958;-75
2020/12/19 10:59:19;;;;;;;;;;;;;;;9.05;100.00;98002.03;5127196;27;19962;-75
2020/12/19 11:01:46;;;;;;;;;;;;;;;9.04;100.00;97989.28;5094657;27;19931;-75
2020/12/19 11:04:13;;;;;;;;;;;;;;;8.97;100.00;97980.34;5093296;28;19928;-75
2020/12/19 11:06:39;;;;;;;;;;;;;;;9.13;100.00;97967.16;5094084;28;19950;-73
2020/12/19 11:09:06;;;;;;;;;;;;;;;9.07;100.00;97943.06;5092951;28;19969;-77
2020/12/19 11:11:33;;;;;;;;;;;;;;;9.06;100.00;97938.69;5094058;27;19928;-76
2020/12/19 11:13:59;;;;;;;;;;;;;;;9.21;100.00;97936.31;5094482;28;19924;-76
2020/12/19 11:16:27;;;;;;;;;;;;;;;9.07;100.00;97898.50;5094226;27;19930;-76
2020/12/19 11:18:54;;;;;;;;;;;;;;;9.05;100.00;97896.16;5109961;28;20279;-76
2020/12/19 11:21:21;;;;;;;;;;;;;;;9.05;100.00;97890.56;5093980;27;19967;-73
2020/12/19 11:23:48;;;;;;;;;;;;;;;9.18;100.00;97887.03;5094293;28;20019;-74
2020/12/19 11:26:21;;;;;;;;;;;;;;;9.22;100.00;97871.78;5092826;28;19931;-74
2020/12/19 11:28:48;;;;;;;;;;;;;;;9.37;100.00;97861.75;5092833;28;19924;-74
2020/12/19 11:31:15;;;;;;;;;;;;;;;9.54;100.00;97848.50;5093216;28;19924;-74
2020/12/19 11:33:42;;;;;;;;;;;;;;;9.49;100.00;97840.69;5093859;28;19924;-74
2020/12/19 11:36:11;;;;;;;;;;;;;;;9.59;100.00;97822.88;5093634;28;19930;-73
2020/12/19 11:38:37;;;;;;;;;;;;;;;9.49;100.00;97784.94;5092541;28;19924;-74
2020/12/19 11:41:03;;;;;;;;;;;;;;;9.28;100.00;97590.50;5093978;28;19928;-73
2020/12/19 11:43:30;;;;;;;;;;;;;;;9.16;100.00;97581.72;5093992;27;19924;-73
2020/12/19 11:45:56;;;;;;;;;;;;;;;9.25;100.00;97585.84;5092868;28;19946;-73
2020/12/19 11:48:23;;;;;;;;;;;;;;;9.33;100.00;97581.59;5096412;28;19974;-73
2020/12/19 11:50:50;;;;;;;;;;;;;;;9.37;100.00;97560.72;5097777;28;20017;-73
2020/12/19 11:53:16;;;;;;;;;;;;;;;9.50;100.00;97529.97;5096729;28;20263;-73
2020/12/19 11:55:43;;;;;;;;;;;;;;;9.62;100.00;97410.03;5097918;28;19963;-74
2020/12/19 11:58:09;;;;;;;;;;;;;;;9.51;100.00;97386.59;5097928;28;19924;-73
2020/12/19 12:00:36;;;;;;;;;;;;;;;9.47;100.00;97399.88;5097837;28;19931;-74
2020/12/19 12:03:02;;;;;;;;;;;;;;;9.36;100.00;97391.16;5097809;28;20386;-74
2020/12/19 12:05:29;;;;;;;;;;;;;;;9.24;100.00;97394.78;5097538;28;19924;-74
2020/12/19 12:07:56;;;;;;;;;;;;;;;9.26;100.00;97397.88;5097909;28;19986;-73
2020/12/19 12:10:22;;;;;;;;;;;;;;;9.26;100.00;97397.88;5096368;28;19947;-74
2020/12/19 12:12:48;;;;;;;;;;;;;;;9.07;100.00;97389.41;5097585;27;19931;-74
2020/12/19 12:15:15;;;;;;;;;;;;;;;9.19;100.00;97407.28;5097583;28;19946;-73
2020/12/19 12:17:42;;;;;;;;;;;;;;;9.09;100.00;97395.31;5097463;28;19952;-74
2020/12/19 12:20:08;;;;;;;;;;;;;;;9.13;100.00;97406.31;5079017;28;20275;-73
2020/12/19 12:22:35;;;;;;;;;;;;;;;9.14;100.00;97394.72;5096513;28;20350;-73
2020/12/19 12:25:01;;;;;;;;;;;;;;;9.18;100.00;97407.75;5096240;28;20327;-74
2020/12/19 12:27:29;;;;;;;;;;;;;;;9.26;100.00;97398.66;5096114;28;19954;-73
2020/12/19 12:29:55;;;;;;;;;;;;;;;9.32;100.00;97423.94;5097257;28;20284;-73
2020/12/19 12:32:22;;;;;;;;;;;;;;;9.18;100.00;97398.16;5096311;28;20376;-73
2020/12/19 12:34:49;;;;;;;;;;;;;;;9.07;100.00;97408.91;5096942;28;20306;-73
2020/12/19 12:37:15;;;;;;;;;;;;;;;9.08;100.00;97401.31;5097159;28;19947;-73
2020/12/19 12:39:42;;;;;;;;;;;;;;;9.05;100.00;97414.16;5096984;28;20340;-74
2020/12/19 12:42:10;;;;;;;;;;;;;;;9.21;100.00;97406.84;5095790;28;19963;-74
2020/12/19 12:44:36;;;;;;;;;;;;;;;9.36;100.00;97413.44;5095678;28;19974;-75
2020/12/19 12:47:04;;;;;;;;;;;;;;;9.34;100.00;97410.31;5096425;28;20014;-74
2020/12/19 12:49:32;;;;;;;;;;;;;;;9.04;100.00;97397.91;5078597;28;19924;-74